sensor_id;sensor_type;location;lat;lon;timestamp;P1;durP1;ratioP1;P2;durP2;ratioP2
79646;SDS011;69119;41.718;21.786;2023-12-28T00:00:39;46.30;;;28.10;;
79646;SDS011;69119;41.718;21.786;2023-12-28T00:03:05;42.22;;;24.80;;
79646;SDS011;69119;41.718;21.786;2023-12-28T00:05:31;43.92;;;25.67;;
79646;SDS011;69119;41.718;21.786;2023-12-28T00:07:57;42.67;;;24.15;;
79646;SDS011;69119;41.718;21.786;2023-12-28T00:10:23;37.63;;;21.75;;
79646;SDS011;69119;41.718;21.786;2023-12-28T00:12:50;42.22;;;24.33;;
79646;SDS011;69119;41.718;21.786;2023-12-28T00:15:16;52.78;;;28.13;;
79646;SDS011;69119;41.718;21.786;2023-12-28T00:17:42;49.08;;;27.70;;
79646;SDS011;69119;41.718;21.786;2023-12-28T00:20:08;49.35;;;28.02;;
79646;SDS011;69119;41.718;21.786;2023-12-28T00:22:34;53.13;;;29.58;;
79646;SDS011;69119;41.718;21.786;2023-12-28T00:25:02;44.70;;;25.15;;
79646;SDS011;69119;41.718;21.786;2023-12-28T00:27:28;44.15;;;25.15;;
79646;SDS011;69119;41.718;21.786;2023-12-28T00:29:54;49.55;;;28.55;;
79646;SDS011;69119;41.718;21.786;2023-12-28T00:32:20;46.05;;;25.90;;
79646;SDS011;69119;41.718;21.786;2023-12-28T00:34:46;46.47;;;22.52;;
79646;SDS011;69119;41.718;21.786;2023-12-28T00:37:12;40.92;;;21.42;;
79646;SDS011;69119;41.718;21.786;2023-12-28T00:39:39;51.92;;;26.45;;
79646;SDS011;69119;41.718;21.786;2023-12-28T00:42:06;42.50;;;24.40;;
79646;SDS011;69119;41.718;21.786;2023-12-28T00:44:32;45.33;;;24.48;;
79646;SDS011;69119;41.718;21.786;2023-12-28T00:46:58;41.55;;;24.40;;
79646;SDS011;69119;41.718;21.786;2023-12-28T00:49:24;45.92;;;26.48;;
79646;SDS011;69119;41.718;21.786;2023-12-28T00:51:50;46.42;;;25.70;;
79646;SDS011;69119;41.718;21.786;2023-12-28T00:54:16;37.35;;;22.92;;
79646;SDS011;69119;41.718;21.786;2023-12-28T00:56:42;36.45;;;22.88;;
79646;SDS011;69119;41.718;21.786;2023-12-28T00:59:08;37.10;;;20.50;;
79646;SDS011;69119;41.718;21.786;2023-12-28T01:01:34;41.72;;;24.45;;
79646;SDS011;69119;41.718;21.786;2023-12-28T01:04:00;37.10;;;19.88;;
79646;SDS011;69119;41.718;21.786;2023-12-28T01:06:26;39.80;;;23.05;;
79646;SDS011;69119;41.718;21.786;2023-12-28T01:08:54;39.00;;;20.40;;
79646;SDS011;69119;41.718;21.786;2023-12-28T01:11:20;37.58;;;21.30;;
79646;SDS011;69119;41.718;21.786;2023-12-28T01:13:46;39.97;;;23.05;;
79646;SDS011;69119;41.718;21.786;2023-12-28T01:16:13;41.35;;;24.00;;
79646;SDS011;69119;41.718;21.786;2023-12-28T01:18:39;44.17;;;26.58;;
79646;SDS011;69119;41.718;21.786;2023-12-28T01:21:05;40.75;;;23.40;;
79646;SDS011;69119;41.718;21.786;2023-12-28T01:23:31;44.08;;;24.67;;
79646;SDS011;69119;41.718;21.786;2023-12-28T01:25:59;44.13;;;25.80;;
79646;SDS011;69119;41.718;21.786;2023-12-28T01:28:25;45.85;;;25.13;;
79646;SDS011;69119;41.718;21.786;2023-12-28T01:30:51;47.40;;;25.90;;
79646;SDS011;69119;41.718;21.786;2023-12-28T01:33:17;40.67;;;23.52;;
79646;SDS011;69119;41.718;21.786;2023-12-28T01:35:43;41.78;;;22.98;;
79646;SDS011;69119;41.718;21.786;2023-12-28T01:38:09;46.75;;;26.85;;
79646;SDS011;69119;41.718;21.786;2023-12-28T01:40:35;48.33;;;27.92;;
79646;SDS011;69119;41.718;21.786;2023-12-28T01:43:01;48.50;;;26.67;;
79646;SDS011;69119;41.718;21.786;2023-12-28T01:45:27;43.63;;;24.92;;
79646;SDS011;69119;41.718;21.786;2023-12-28T01:47:53;42.90;;;25.08;;
79646;SDS011;69119;41.718;21.786;2023-12-28T01:50:21;41.30;;;23.13;;
79646;SDS011;69119;41.718;21.786;2023-12-28T01:52:49;53.03;;;29.02;;
79646;SDS011;69119;41.718;21.786;2023-12-28T01:55:15;47.47;;;25.73;;
79646;SDS011;69119;41.718;21.786;2023-12-28T01:57:42;44.70;;;25.77;;
79646;SDS011;69119;41.718;21.786;2023-12-28T02:00:08;38.17;;;20.75;;
79646;SDS011;69119;41.718;21.786;2023-12-28T02:02:34;40.80;;;20.05;;
79646;SDS011;69119;41.718;21.786;2023-12-28T02:05:01;42.22;;;22.77;;
79646;SDS011;69119;41.718;21.786;2023-12-28T02:07:27;29.52;;;17.33;;
79646;SDS011;69119;41.718;21.786;2023-12-28T02:09:55;36.20;;;20.05;;
79646;SDS011;69119;41.718;21.786;2023-12-28T02:12:21;40.95;;;21.60;;
79646;SDS011;69119;41.718;21.786;2023-12-28T02:14:47;32.33;;;17.95;;
79646;SDS011;69119;41.718;21.786;2023-12-28T02:17:19;34.70;;;19.65;;
79646;SDS011;69119;41.718;21.786;2023-12-28T02:19:49;39.42;;;21.60;;
79646;SDS011;69119;41.718;21.786;2023-12-28T02:22:16;34.30;;;18.80;;
79646;SDS011;69119;41.718;21.786;2023-12-28T02:27:20;38.35;;;21.88;;
79646;SDS011;69119;41.718;21.786;2023-12-28T02:29:46;34.53;;;18.42;;
79646;SDS011;69119;41.718;21.786;2023-12-28T02:32:12;33.75;;;17.67;;
79646;SDS011;69119;41.718;21.786;2023-12-28T02:34:39;33.33;;;19.17;;
79646;SDS011;69119;41.718;21.786;2023-12-28T02:37:07;35.85;;;19.90;;
79646;SDS011;69119;41.718;21.786;2023-12-28T02:39:34;33.90;;;19.70;;
79646;SDS011;69119;41.718;21.786;2023-12-28T02:42:01;34.15;;;19.40;;
79646;SDS011;69119;41.718;21.786;2023-12-28T02:44:27;33.28;;;17.67;;
79646;SDS011;69119;41.718;21.786;2023-12-28T02:46:53;34.72;;;17.63;;
79646;SDS011;69119;41.718;21.786;2023-12-28T02:49:19;36.65;;;20.10;;
79646;SDS011;69119;41.718;21.786;2023-12-28T02:51:45;31.90;;;18.88;;
79646;SDS011;69119;41.718;21.786;2023-12-28T02:54:12;33.78;;;18.10;;
79646;SDS011;69119;41.718;21.786;2023-12-28T02:56:39;30.67;;;17.27;;
79646;SDS011;69119;41.718;21.786;2023-12-28T02:59:06;36.38;;;18.83;;
79646;SDS011;69119;41.718;21.786;2023-12-28T03:01:32;37.72;;;19.65;;
79646;SDS011;69119;41.718;21.786;2023-12-28T03:03:58;35.70;;;19.27;;
79646;SDS011;69119;41.718;21.786;2023-12-28T03:06:24;40.38;;;19.25;;
79646;SDS011;69119;41.718;21.786;2023-12-28T03:08:50;37.72;;;19.42;;
79646;SDS011;69119;41.718;21.786;2023-12-28T03:11:16;41.50;;;23.45;;
79646;SDS011;69119;41.718;21.786;2023-12-28T03:13:42;29.25;;;14.40;;
79646;SDS011;69119;41.718;21.786;2023-12-28T03:16:08;32.67;;;17.67;;
79646;SDS011;69119;41.718;21.786;2023-12-28T03:18:34;34.55;;;19.13;;
79646;SDS011;69119;41.718;21.786;2023-12-28T03:21:00;35.33;;;17.50;;
79646;SDS011;69119;41.718;21.786;2023-12-28T03:23:26;33.22;;;19.13;;
79646;SDS011;69119;41.718;21.786;2023-12-28T03:25:52;35.40;;;20.73;;
79646;SDS011;69119;41.718;21.786;2023-12-28T03:28:18;33.60;;;18.55;;
79646;SDS011;69119;41.718;21.786;2023-12-28T03:30:45;33.17;;;19.13;;
79646;SDS011;69119;41.718;21.786;2023-12-28T03:33:11;39.67;;;21.88;;
79646;SDS011;69119;41.718;21.786;2023-12-28T03:35:37;40.60;;;23.55;;
79646;SDS011;69119;41.718;21.786;2023-12-28T03:38:03;37.40;;;20.55;;
79646;SDS011;69119;41.718;21.786;2023-12-28T03:40:29;32.28;;;18.08;;
79646;SDS011;69119;41.718;21.786;2023-12-28T03:42:55;20.38;;;11.57;;
79646;SDS011;69119;41.718;21.786;2023-12-28T03:45:21;31.85;;;16.27;;
79646;SDS011;69119;41.718;21.786;2023-12-28T03:47:47;36.25;;;21.17;;
79646;SDS011;69119;41.718;21.786;2023-12-28T03:50:14;35.80;;;19.85;;
79646;SDS011;69119;41.718;21.786;2023-12-28T03:52:40;41.25;;;22.48;;
79646;SDS011;69119;41.718;21.786;2023-12-28T03:55:06;28.80;;;15.60;;
79646;SDS011;69119;41.718;21.786;2023-12-28T03:57:32;34.38;;;20.58;;
79646;SDS011;69119;41.718;21.786;2023-12-28T03:59:58;32.92;;;19.92;;
79646;SDS011;69119;41.718;21.786;2023-12-28T04:02:25;31.73;;;17.45;;
79646;SDS011;69119;41.718;21.786;2023-12-28T04:04:55;32.83;;;17.80;;
79646;SDS011;69119;41.718;21.786;2023-12-28T04:07:23;32.60;;;18.88;;
79646;SDS011;69119;41.718;21.786;2023-12-28T04:09:49;39.10;;;22.77;;
79646;SDS011;69119;41.718;21.786;2023-12-28T04:12:15;36.60;;;19.92;;
79646;SDS011;69119;41.718;21.786;2023-12-28T04:14:41;37.95;;;18.63;;
79646;SDS011;69119;41.718;21.786;2023-12-28T04:17:08;35.00;;;20.52;;
79646;SDS011;69119;41.718;21.786;2023-12-28T04:19:34;28.50;;;15.18;;
79646;SDS011;69119;41.718;21.786;2023-12-28T04:22:00;29.27;;;16.27;;
79646;SDS011;69119;41.718;21.786;2023-12-28T04:24:26;31.95;;;17.20;;
79646;SDS011;69119;41.718;21.786;2023-12-28T04:26:52;28.95;;;16.17;;
79646;SDS011;69119;41.718;21.786;2023-12-28T04:29:18;32.40;;;17.33;;
79646;SDS011;69119;41.718;21.786;2023-12-28T04:31:44;28.27;;;16.08;;
79646;SDS011;69119;41.718;21.786;2023-12-28T04:34:11;33.28;;;16.83;;
79646;SDS011;69119;41.718;21.786;2023-12-28T04:36:41;30.45;;;17.98;;
79646;SDS011;69119;41.718;21.786;2023-12-28T04:39:08;33.45;;;17.65;;
79646;SDS011;69119;41.718;21.786;2023-12-28T04:41:34;34.60;;;18.20;;
79646;SDS011;69119;41.718;21.786;2023-12-28T04:44:00;27.73;;;14.60;;
79646;SDS011;69119;41.718;21.786;2023-12-28T04:46:26;37.00;;;17.13;;
79646;SDS011;69119;41.718;21.786;2023-12-28T04:48:52;41.67;;;19.05;;
79646;SDS011;69119;41.718;21.786;2023-12-28T04:51:18;39.97;;;19.35;;
79646;SDS011;69119;41.718;21.786;2023-12-28T04:53:44;44.17;;;21.00;;
79646;SDS011;69119;41.718;21.786;2023-12-28T04:56:10;38.55;;;20.17;;
79646;SDS011;69119;41.718;21.786;2023-12-28T04:58:36;33.88;;;20.50;;
79646;SDS011;69119;41.718;21.786;2023-12-28T05:01:02;28.48;;;15.07;;
79646;SDS011;69119;41.718;21.786;2023-12-28T05:03:28;31.67;;;17.38;;
79646;SDS011;69119;41.718;21.786;2023-12-28T05:05:54;33.28;;;18.00;;
79646;SDS011;69119;41.718;21.786;2023-12-28T05:08:21;32.10;;;16.35;;
79646;SDS011;69119;41.718;21.786;2023-12-28T05:10:47;31.60;;;18.20;;
79646;SDS011;69119;41.718;21.786;2023-12-28T05:13:13;36.00;;;16.52;;
79646;SDS011;69119;41.718;21.786;2023-12-28T05:15:39;30.45;;;15.50;;
79646;SDS011;69119;41.718;21.786;2023-12-28T05:18:05;34.40;;;16.60;;
79646;SDS011;69119;41.718;21.786;2023-12-28T05:20:33;31.90;;;16.85;;
79646;SDS011;69119;41.718;21.786;2023-12-28T05:22:59;31.40;;;16.40;;
79646;SDS011;69119;41.718;21.786;2023-12-28T05:25:25;33.75;;;18.90;;
79646;SDS011;69119;41.718;21.786;2023-12-28T05:27:51;32.05;;;16.95;;
79646;SDS011;69119;41.718;21.786;2023-12-28T05:30:17;32.15;;;16.63;;
79646;SDS011;69119;41.718;21.786;2023-12-28T05:32:43;32.60;;;16.23;;
79646;SDS011;69119;41.718;21.786;2023-12-28T05:35:09;35.03;;;18.30;;
79646;SDS011;69119;41.718;21.786;2023-12-28T05:37:35;42.47;;;20.95;;
79646;SDS011;69119;41.718;21.786;2023-12-28T05:40:02;44.05;;;21.52;;
79646;SDS011;69119;41.718;21.786;2023-12-28T05:42:28;42.33;;;21.05;;
79646;SDS011;69119;41.718;21.786;2023-12-28T05:44:54;43.17;;;19.35;;
79646;SDS011;69119;41.718;21.786;2023-12-28T05:47:20;38.05;;;18.58;;
79646;SDS011;69119;41.718;21.786;2023-12-28T05:49:46;46.03;;;23.15;;
79646;SDS011;69119;41.718;21.786;2023-12-28T05:52:12;38.47;;;18.60;;
79646;SDS011;69119;41.718;21.786;2023-12-28T05:54:40;42.05;;;17.73;;
79646;SDS011;69119;41.718;21.786;2023-12-28T05:57:08;36.03;;;18.85;;
79646;SDS011;69119;41.718;21.786;2023-12-28T05:59:37;40.42;;;17.88;;
79646;SDS011;69119;41.718;21.786;2023-12-28T06:02:03;39.17;;;17.77;;
79646;SDS011;69119;41.718;21.786;2023-12-28T06:04:29;37.75;;;18.80;;
79646;SDS011;69119;41.718;21.786;2023-12-28T06:06:56;31.55;;;16.70;;
79646;SDS011;69119;41.718;21.786;2023-12-28T06:09:22;40.22;;;19.10;;
79646;SDS011;69119;41.718;21.786;2023-12-28T06:11:48;44.35;;;20.42;;
79646;SDS011;69119;41.718;21.786;2023-12-28T06:14:14;35.72;;;16.92;;
79646;SDS011;69119;41.718;21.786;2023-12-28T06:16:40;34.65;;;17.13;;
79646;SDS011;69119;41.718;21.786;2023-12-28T06:19:06;38.40;;;17.73;;
79646;SDS011;69119;41.718;21.786;2023-12-28T06:21:32;30.90;;;15.35;;
79646;SDS011;69119;41.718;21.786;2023-12-28T06:23:59;42.75;;;22.55;;
79646;SDS011;69119;41.718;21.786;2023-12-28T06:26:25;25.13;;;12.40;;
79646;SDS011;69119;41.718;21.786;2023-12-28T06:28:51;23.48;;;12.10;;
79646;SDS011;69119;41.718;21.786;2023-12-28T06:31:17;25.35;;;13.05;;
79646;SDS011;69119;41.718;21.786;2023-12-28T06:33:43;19.52;;;11.60;;
79646;SDS011;69119;41.718;21.786;2023-12-28T06:36:09;43.55;;;17.98;;
79646;SDS011;69119;41.718;21.786;2023-12-28T06:38:36;39.95;;;16.40;;
79646;SDS011;69119;41.718;21.786;2023-12-28T06:41:02;36.17;;;16.75;;
79646;SDS011;69119;41.718;21.786;2023-12-28T06:43:28;23.63;;;12.18;;
79646;SDS011;69119;41.718;21.786;2023-12-28T06:45:54;30.75;;;12.18;;
79646;SDS011;69119;41.718;21.786;2023-12-28T06:48:20;31.30;;;14.85;;
79646;SDS011;69119;41.718;21.786;2023-12-28T06:50:46;45.80;;;17.92;;
79646;SDS011;69119;41.718;21.786;2023-12-28T06:53:12;49.95;;;21.70;;
79646;SDS011;69119;41.718;21.786;2023-12-28T06:55:38;91.20;;;25.27;;
79646;SDS011;69119;41.718;21.786;2023-12-28T06:58:04;50.85;;;22.08;;
79646;SDS011;69119;41.718;21.786;2023-12-28T07:00:32;95.03;;;37.92;;
79646;SDS011;69119;41.718;21.786;2023-12-28T07:02:58;36.40;;;18.30;;
79646;SDS011;69119;41.718;21.786;2023-12-28T07:05:24;40.80;;;18.42;;
79646;SDS011;69119;41.718;21.786;2023-12-28T07:07:50;51.97;;;22.20;;
79646;SDS011;69119;41.718;21.786;2023-12-28T07:10:16;44.85;;;19.58;;
79646;SDS011;69119;41.718;21.786;2023-12-28T07:12:42;45.78;;;20.33;;
79646;SDS011;69119;41.718;21.786;2023-12-28T07:15:08;41.53;;;16.15;;
79646;SDS011;69119;41.718;21.786;2023-12-28T07:17:38;35.85;;;17.92;;
79646;SDS011;69119;41.718;21.786;2023-12-28T07:20:05;65.55;;;30.23;;
79646;SDS011;69119;41.718;21.786;2023-12-28T07:22:31;54.08;;;22.27;;
79646;SDS011;69119;41.718;21.786;2023-12-28T07:24:57;44.88;;;23.15;;
79646;SDS011;69119;41.718;21.786;2023-12-28T07:27:24;31.02;;;14.25;;
79646;SDS011;69119;41.718;21.786;2023-12-28T07:29:50;40.30;;;22.05;;
79646;SDS011;69119;41.718;21.786;2023-12-28T07:32:16;44.42;;;24.83;;
79646;SDS011;69119;41.718;21.786;2023-12-28T07:34:42;38.13;;;19.23;;
79646;SDS011;69119;41.718;21.786;2023-12-28T07:37:08;42.78;;;22.15;;
79646;SDS011;69119;41.718;21.786;2023-12-28T07:39:34;38.80;;;21.80;;
79646;SDS011;69119;41.718;21.786;2023-12-28T07:42:00;36.03;;;21.77;;
79646;SDS011;69119;41.718;21.786;2023-12-28T07:44:26;33.25;;;19.77;;
79646;SDS011;69119;41.718;21.786;2023-12-28T07:46:52;40.30;;;22.50;;
79646;SDS011;69119;41.718;21.786;2023-12-28T07:49:18;51.42;;;28.10;;
79646;SDS011;69119;41.718;21.786;2023-12-28T07:51:44;46.22;;;25.92;;
79646;SDS011;69119;41.718;21.786;2023-12-28T07:54:10;42.92;;;25.45;;
79646;SDS011;69119;41.718;21.786;2023-12-28T07:56:36;40.17;;;26.08;;
79646;SDS011;69119;41.718;21.786;2023-12-28T07:59:02;38.88;;;24.33;;
79646;SDS011;69119;41.718;21.786;2023-12-28T08:01:28;36.15;;;21.92;;
79646;SDS011;69119;41.718;21.786;2023-12-28T08:03:55;33.08;;;20.55;;
79646;SDS011;69119;41.718;21.786;2023-12-28T08:06:21;27.25;;;15.85;;
79646;SDS011;69119;41.718;21.786;2023-12-28T08:08:47;33.10;;;20.00;;
79646;SDS011;69119;41.718;21.786;2023-12-28T08:11:13;27.75;;;17.77;;
79646;SDS011;69119;41.718;21.786;2023-12-28T08:13:39;29.58;;;19.20;;
79646;SDS011;69119;41.718;21.786;2023-12-28T08:16:05;33.78;;;22.80;;
79646;SDS011;69119;41.718;21.786;2023-12-28T08:18:31;41.65;;;25.35;;
79646;SDS011;69119;41.718;21.786;2023-12-28T08:20:57;41.60;;;26.67;;
79646;SDS011;69119;41.718;21.786;2023-12-28T08:23:25;40.33;;;26.00;;
79646;SDS011;69119;41.718;21.786;2023-12-28T08:25:51;44.42;;;27.17;;
79646;SDS011;69119;41.718;21.786;2023-12-28T08:28:17;46.53;;;32.03;;
79646;SDS011;69119;41.718;21.786;2023-12-28T08:30:43;40.40;;;23.88;;
79646;SDS011;69119;41.718;21.786;2023-12-28T08:33:09;50.20;;;29.08;;
79646;SDS011;69119;41.718;21.786;2023-12-28T08:35:35;55.15;;;33.90;;
79646;SDS011;69119;41.718;21.786;2023-12-28T08:38:01;61.70;;;38.10;;
79646;SDS011;69119;41.718;21.786;2023-12-28T08:40:27;52.58;;;33.83;;
79646;SDS011;69119;41.718;21.786;2023-12-28T08:42:53;56.15;;;33.70;;
79646;SDS011;69119;41.718;21.786;2023-12-28T08:45:19;54.83;;;34.13;;
79646;SDS011;69119;41.718;21.786;2023-12-28T08:47:46;52.97;;;32.97;;
79646;SDS011;69119;41.718;21.786;2023-12-28T08:50:12;52.78;;;31.83;;
79646;SDS011;69119;41.718;21.786;2023-12-28T08:52:38;50.22;;;32.22;;
79646;SDS011;69119;41.718;21.786;2023-12-28T08:55:04;42.58;;;25.95;;
79646;SDS011;69119;41.718;21.786;2023-12-28T08:57:30;46.55;;;29.85;;
79646;SDS011;69119;41.718;21.786;2023-12-28T08:59:57;48.72;;;28.73;;
79646;SDS011;69119;41.718;21.786;2023-12-28T09:02:27;46.03;;;28.75;;
79646;SDS011;69119;41.718;21.786;2023-12-28T09:04:53;45.08;;;26.40;;
79646;SDS011;69119;41.718;21.786;2023-12-28T09:07:19;42.70;;;26.25;;
79646;SDS011;69119;41.718;21.786;2023-12-28T09:09:45;45.63;;;25.52;;
79646;SDS011;69119;41.718;21.786;2023-12-28T09:12:12;36.22;;;24.05;;
79646;SDS011;69119;41.718;21.786;2023-12-28T09:14:38;36.22;;;21.88;;
79646;SDS011;69119;41.718;21.786;2023-12-28T09:17:04;30.45;;;18.38;;
79646;SDS011;69119;41.718;21.786;2023-12-28T09:19:30;33.25;;;20.35;;
79646;SDS011;69119;41.718;21.786;2023-12-28T09:21:56;29.83;;;17.23;;
79646;SDS011;69119;41.718;21.786;2023-12-28T09:24:22;33.58;;;20.42;;
79646;SDS011;69119;41.718;21.786;2023-12-28T09:26:48;34.30;;;20.25;;
79646;SDS011;69119;41.718;21.786;2023-12-28T09:29:14;35.30;;;20.58;;
79646;SDS011;69119;41.718;21.786;2023-12-28T09:31:40;30.92;;;19.30;;
79646;SDS011;69119;41.718;21.786;2023-12-28T09:34:06;34.78;;;20.88;;
79646;SDS011;69119;41.718;21.786;2023-12-28T09:36:32;26.83;;;16.60;;
79646;SDS011;69119;41.718;21.786;2023-12-28T09:38:58;30.50;;;19.70;;
79646;SDS011;69119;41.718;21.786;2023-12-28T09:41:26;28.65;;;18.27;;
79646;SDS011;69119;41.718;21.786;2023-12-28T09:46:21;42.67;;;26.88;;
79646;SDS011;69119;41.718;21.786;2023-12-28T09:48:48;40.65;;;26.42;;
79646;SDS011;69119;41.718;21.786;2023-12-28T09:51:14;34.22;;;21.48;;
79646;SDS011;69119;41.718;21.786;2023-12-28T09:53:42;32.25;;;23.65;;
79646;SDS011;69119;41.718;21.786;2023-12-28T09:56:09;36.78;;;23.63;;
79646;SDS011;69119;41.718;21.786;2023-12-28T09:58:35;41.70;;;28.00;;
79646;SDS011;69119;41.718;21.786;2023-12-28T10:01:02;39.38;;;27.25;;
79646;SDS011;69119;41.718;21.786;2023-12-28T10:03:29;41.13;;;29.70;;
79646;SDS011;69119;41.718;21.786;2023-12-28T10:05:55;48.95;;;34.95;;
79646;SDS011;69119;41.718;21.786;2023-12-28T10:08:21;47.08;;;34.97;;
79646;SDS011;69119;41.718;21.786;2023-12-28T10:10:47;52.30;;;36.58;;
79646;SDS011;69119;41.718;21.786;2023-12-28T10:13:19;54.28;;;38.65;;
79646;SDS011;69119;41.718;21.786;2023-12-28T10:15:45;54.30;;;37.22;;
79646;SDS011;69119;41.718;21.786;2023-12-28T10:18:11;40.38;;;30.40;;
79646;SDS011;69119;41.718;21.786;2023-12-28T10:20:38;48.38;;;34.42;;
79646;SDS011;69119;41.718;21.786;2023-12-28T10:23:04;49.17;;;33.58;;
79646;SDS011;69119;41.718;21.786;2023-12-28T10:25:31;53.70;;;36.42;;
79646;SDS011;69119;41.718;21.786;2023-12-28T10:27:57;58.15;;;38.95;;
79646;SDS011;69119;41.718;21.786;2023-12-28T10:30:24;57.35;;;39.83;;
79646;SDS011;69119;41.718;21.786;2023-12-28T10:32:50;49.33;;;32.50;;
79646;SDS011;69119;41.718;21.786;2023-12-28T10:35:17;57.78;;;39.80;;
79646;SDS011;69119;41.718;21.786;2023-12-28T10:37:43;41.05;;;27.20;;
79646;SDS011;69119;41.718;21.786;2023-12-28T10:40:15;43.13;;;30.73;;
79646;SDS011;69119;41.718;21.786;2023-12-28T10:43:01;49.38;;;35.42;;
79646;SDS011;69119;41.718;21.786;2023-12-28T10:45:28;53.00;;;35.60;;
79646;SDS011;69119;41.718;21.786;2023-12-28T10:48:05;45.22;;;32.22;;
79646;SDS011;69119;41.718;21.786;2023-12-28T10:50:39;62.50;;;42.45;;
79646;SDS011;69119;41.718;21.786;2023-12-28T10:55:59;36.97;;;26.17;;
79646;SDS011;69119;41.718;21.786;2023-12-28T10:58:30;33.20;;;22.42;;
79646;SDS011;69119;41.718;21.786;2023-12-28T11:00:59;31.08;;;20.60;;
79646;SDS011;69119;41.718;21.786;2023-12-28T11:03:29;32.65;;;20.67;;
79646;SDS011;69119;41.718;21.786;2023-12-28T11:05:56;33.28;;;22.23;;
79646;SDS011;69119;41.718;21.786;2023-12-28T11:08:22;33.20;;;21.13;;
79646;SDS011;69119;41.718;21.786;2023-12-28T11:10:50;28.73;;;19.45;;
79646;SDS011;69119;41.718;21.786;2023-12-28T11:13:17;38.42;;;23.08;;
79646;SDS011;69119;41.718;21.786;2023-12-28T11:15:46;34.00;;;22.88;;
79646;SDS011;69119;41.718;21.786;2023-12-28T11:18:14;29.77;;;18.98;;
79646;SDS011;69119;41.718;21.786;2023-12-28T11:20:41;27.98;;;16.75;;
79646;SDS011;69119;41.718;21.786;2023-12-28T11:23:08;24.67;;;16.10;;
79646;SDS011;69119;41.718;21.786;2023-12-28T11:28:08;29.65;;;18.55;;
79646;SDS011;69119;41.718;21.786;2023-12-28T11:30:34;27.83;;;18.20;;
79646;SDS011;69119;41.718;21.786;2023-12-28T11:33:01;32.58;;;20.05;;
79646;SDS011;69119;41.718;21.786;2023-12-28T11:35:35;41.70;;;24.13;;
79646;SDS011;69119;41.718;21.786;2023-12-28T11:38:05;32.83;;;20.17;;
79646;SDS011;69119;41.718;21.786;2023-12-28T11:40:44;39.00;;;22.80;;
79646;SDS011;69119;41.718;21.786;2023-12-28T11:43:20;30.73;;;18.77;;
79646;SDS011;69119;41.718;21.786;2023-12-28T11:45:48;26.83;;;16.08;;
79646;SDS011;69119;41.718;21.786;2023-12-28T11:48:24;30.63;;;17.70;;
79646;SDS011;69119;41.718;21.786;2023-12-28T11:50:55;31.52;;;20.60;;
79646;SDS011;69119;41.718;21.786;2023-12-28T11:53:22;32.10;;;19.67;;
79646;SDS011;69119;41.718;21.786;2023-12-28T11:55:48;27.35;;;16.80;;
79646;SDS011;69119;41.718;21.786;2023-12-28T11:58:15;25.60;;;16.08;;
79646;SDS011;69119;41.718;21.786;2023-12-28T12:00:42;31.65;;;18.85;;
79646;SDS011;69119;41.718;21.786;2023-12-28T12:03:11;29.05;;;17.77;;
79646;SDS011;69119;41.718;21.786;2023-12-28T12:05:38;28.45;;;17.55;;
79646;SDS011;69119;41.718;21.786;2023-12-28T12:08:05;26.77;;;17.73;;
79646;SDS011;69119;41.718;21.786;2023-12-28T12:10:33;25.23;;;15.80;;
79646;SDS011;69119;41.718;21.786;2023-12-28T12:12:59;24.75;;;16.10;;
79646;SDS011;69119;41.718;21.786;2023-12-28T12:15:27;27.00;;;15.77;;
79646;SDS011;69119;41.718;21.786;2023-12-28T12:20:20;28.73;;;15.85;;
79646;SDS011;69119;41.718;21.786;2023-12-28T12:22:46;28.40;;;17.35;;
79646;SDS011;69119;41.718;21.786;2023-12-28T12:25:12;29.35;;;17.75;;
79646;SDS011;69119;41.718;21.786;2023-12-28T12:27:38;31.67;;;18.40;;
79646;SDS011;69119;41.718;21.786;2023-12-28T12:30:04;38.40;;;27.55;;
79646;SDS011;69119;41.718;21.786;2023-12-28T12:32:31;42.40;;;30.40;;
79646;SDS011;69119;41.718;21.786;2023-12-28T12:34:57;44.25;;;26.67;;
79646;SDS011;69119;41.718;21.786;2023-12-28T12:37:23;41.05;;;25.02;;
79646;SDS011;69119;41.718;21.786;2023-12-28T12:39:49;33.92;;;22.10;;
79646;SDS011;69119;41.718;21.786;2023-12-28T12:42:15;33.55;;;23.05;;
79646;SDS011;69119;41.718;21.786;2023-12-28T12:44:42;32.75;;;21.95;;
79646;SDS011;69119;41.718;21.786;2023-12-28T12:47:08;29.60;;;18.45;;
79646;SDS011;69119;41.718;21.786;2023-12-28T12:49:34;33.35;;;20.67;;
79646;SDS011;69119;41.718;21.786;2023-12-28T12:52:01;30.77;;;19.33;;
79646;SDS011;69119;41.718;21.786;2023-12-28T12:54:27;30.08;;;18.23;;
79646;SDS011;69119;41.718;21.786;2023-12-28T12:56:53;32.78;;;21.38;;
79646;SDS011;69119;41.718;21.786;2023-12-28T12:59:22;38.25;;;21.52;;
79646;SDS011;69119;41.718;21.786;2023-12-28T13:01:48;38.40;;;22.83;;
79646;SDS011;69119;41.718;21.786;2023-12-28T13:04:14;43.38;;;25.98;;
79646;SDS011;69119;41.718;21.786;2023-12-28T13:06:43;43.83;;;26.80;;
79646;SDS011;69119;41.718;21.786;2023-12-28T13:09:09;40.80;;;25.92;;
79646;SDS011;69119;41.718;21.786;2023-12-28T13:11:36;37.58;;;25.02;;
79646;SDS011;69119;41.718;21.786;2023-12-28T13:14:02;41.65;;;25.92;;
79646;SDS011;69119;41.718;21.786;2023-12-28T13:18:55;46.80;;;28.63;;
79646;SDS011;69119;41.718;21.786;2023-12-28T13:21:21;42.88;;;28.40;;
79646;SDS011;69119;41.718;21.786;2023-12-28T13:23:48;40.90;;;27.63;;
79646;SDS011;69119;41.718;21.786;2023-12-28T13:26:14;44.97;;;27.90;;
79646;SDS011;69119;41.718;21.786;2023-12-28T13:28:40;49.20;;;29.55;;
79646;SDS011;69119;41.718;21.786;2023-12-28T13:31:07;54.80;;;34.53;;
79646;SDS011;69119;41.718;21.786;2023-12-28T13:33:33;77.78;;;45.45;;
79646;SDS011;69119;41.718;21.786;2023-12-28T13:36:00;99.10;;;54.08;;
79646;SDS011;69119;41.718;21.786;2023-12-28T13:38:26;84.18;;;47.33;;
79646;SDS011;69119;41.718;21.786;2023-12-28T13:40:52;75.65;;;45.53;;
79646;SDS011;69119;41.718;21.786;2023-12-28T13:43:18;84.85;;;49.80;;
79646;SDS011;69119;41.718;21.786;2023-12-28T13:45:44;97.50;;;56.58;;
79646;SDS011;69119;41.718;21.786;2023-12-28T13:48:10;169.85;;;95.25;;
79646;SDS011;69119;41.718;21.786;2023-12-28T13:50:36;290.17;;;135.73;;
79646;SDS011;69119;41.718;21.786;2023-12-28T13:53:03;264.95;;;128.85;;
79646;SDS011;69119;41.718;21.786;2023-12-28T13:55:31;266.27;;;125.53;;
79646;SDS011;69119;41.718;21.786;2023-12-28T13:57:58;304.90;;;148.73;;
79646;SDS011;69119;41.718;21.786;2023-12-28T14:00:24;297.05;;;139.35;;
79646;SDS011;69119;41.718;21.786;2023-12-28T14:02:50;279.90;;;139.55;;
79646;SDS011;69119;41.718;21.786;2023-12-28T14:05:18;288.45;;;160.52;;
79646;SDS011;69119;41.718;21.786;2023-12-28T14:07:44;315.63;;;164.13;;
79646;SDS011;69119;41.718;21.786;2023-12-28T14:10:10;379.70;;;192.35;;
79646;SDS011;69119;41.718;21.786;2023-12-28T14:12:36;357.83;;;190.27;;
79646;SDS011;69119;41.718;21.786;2023-12-28T14:15:02;300.83;;;159.05;;
79646;SDS011;69119;41.718;21.786;2023-12-28T14:17:28;297.35;;;151.80;;
79646;SDS011;69119;41.718;21.786;2023-12-28T14:19:55;255.63;;;137.50;;